sensor_id;sensor_type;location;lat;lon;timestamp;temperature;humidity
36716;DHT22;22699;51.034;3.730;2022-07-29T00:00:53;20.30;73.00
36716;DHT22;22699;51.034;3.730;2022-07-29T00:03:18;20.20;73.20
36716;DHT22;22699;51.034;3.730;2022-07-29T00:05:44;20.10;73.40
36716;DHT22;22699;51.034;3.730;2022-07-29T00:08:10;20.10;73.50
36716;DHT22;22699;51.034;3.730;2022-07-29T00:10:35;20.10;74.10
36716;DHT22;22699;51.034;3.730;2022-07-29T00:13:02;20.10;73.60
36716;DHT22;22699;51.034;3.730;2022-07-29T00:15:29;20.10;73.60
36716;DHT22;22699;51.034;3.730;2022-07-29T00:17:54;20.10;73.40
36716;DHT22;22699;51.034;3.730;2022-07-29T00:20:20;20.10;73.30
36716;DHT22;22699;51.034;3.730;2022-07-29T00:22:49;20.10;73.20
36716;DHT22;22699;51.034;3.730;2022-07-29T00:25:14;20.10;73.20
36716;DHT22;22699;51.034;3.730;2022-07-29T00:27:40;20.10;73.40
36716;DHT22;22699;51.034;3.730;2022-07-29T00:30:06;20.10;73.20
36716;DHT22;22699;51.034;3.730;2022-07-29T00:32:32;20.10;73.40
36716;DHT22;22699;51.034;3.730;2022-07-29T00:34:58;20.00;73.70
36716;DHT22;22699;51.034;3.730;2022-07-29T00:37:42;20.00;73.70
36716;DHT22;22699;51.034;3.730;2022-07-29T00:40:09;20.00;73.70
36716;DHT22;22699;51.034;3.730;2022-07-29T00:42:52;19.90;73.80
36716;DHT22;22699;51.034;3.730;2022-07-29T00:45:18;19.90;74.00
36716;DHT22;22699;51.034;3.730;2022-07-29T00:47:44;19.80;74.00
36716;DHT22;22699;51.034;3.730;2022-07-29T00:50:12;19.80;74.10
36716;DHT22;22699;51.034;3.730;2022-07-29T00:52:40;19.80;74.20
36716;DHT22;22699;51.034;3.730;2022-07-29T00:55:08;19.90;74.10
36716;DHT22;22699;51.034;3.730;2022-07-29T00:57:38;19.90;74.00
36716;DHT22;22699;51.034;3.730;2022-07-29T01:00:06;19.80;74.10
36716;DHT22;22699;51.034;3.730;2022-07-29T01:02:32;19.80;74.40
36716;DHT22;22699;51.034;3.730;2022-07-29T01:04:58;19.80;74.60
36716;DHT22;22699;51.034;3.730;2022-07-29T01:07:25;19.90;74.50
36716;DHT22;22699;51.034;3.730;2022-07-29T01:09:52;19.80;74.60
36716;DHT22;22699;51.034;3.730;2022-07-29T01:12:26;19.80;74.90
36716;DHT22;22699;51.034;3.730;2022-07-29T01:14:54;19.70;75.00
36716;DHT22;22699;51.034;3.730;2022-07-29T01:28:44;19.40;76.20
36716;DHT22;22699;51.034;3.730;2022-07-29T01:31:16;19.40;76.80
36716;DHT22;22699;51.034;3.730;2022-07-29T01:33:46;19.30;77.20
36716;DHT22;22699;51.034;3.730;2022-07-29T01:36:17;19.30;77.30
36716;DHT22;22699;51.034;3.730;2022-07-29T01:38:46;19.20;77.70
36716;DHT22;22699;51.034;3.730;2022-07-29T01:41:17;19.10;78.40
36716;DHT22;22699;51.034;3.730;2022-07-29T01:43:53;19.10;78.50
36716;DHT22;22699;51.034;3.730;2022-07-29T01:46:33;19.10;78.60
36716;DHT22;22699;51.034;3.730;2022-07-29T01:49:10;19.10;78.70
36716;DHT22;22699;51.034;3.730;2022-07-29T01:51:43;19.10;78.70
36716;DHT22;22699;51.034;3.730;2022-07-29T01:56:59;19.00;79.10
36716;DHT22;22699;51.034;3.730;2022-07-29T01:59:27;18.90;79.50
36716;DHT22;22699;51.034;3.730;2022-07-29T02:01:55;18.90;79.90
36716;DHT22;22699;51.034;3.730;2022-07-29T02:04:23;18.90;80.30
36716;DHT22;22699;51.034;3.730;2022-07-29T02:06:51;18.90;80.60
36716;DHT22;22699;51.034;3.730;2022-07-29T02:09:19;18.80;81.00
36716;DHT22;22699;51.034;3.730;2022-07-29T02:11:52;18.70;81.40
36716;DHT22;22699;51.034;3.730;2022-07-29T02:14:20;18.80;81.30
36716;DHT22;22699;51.034;3.730;2022-07-29T02:16:49;18.80;81.50
36716;DHT22;22699;51.034;3.730;2022-07-29T02:19:18;18.70;81.90
36716;DHT22;22699;51.034;3.730;2022-07-29T02:21:48;18.60;82.10
36716;DHT22;22699;51.034;3.730;2022-07-29T02:24:16;18.70;82.10
36716;DHT22;22699;51.034;3.730;2022-07-29T02:26:43;18.70;82.20
36716;DHT22;22699;51.034;3.730;2022-07-29T02:29:12;18.60;82.40
36716;DHT22;22699;51.034;3.730;2022-07-29T02:31:39;18.60;82.80
36716;DHT22;22699;51.034;3.730;2022-07-29T02:34:08;18.60;82.90
36716;DHT22;22699;51.034;3.730;2022-07-29T02:36:34;18.60;82.90
36716;DHT22;22699;51.034;3.730;2022-07-29T02:39:01;18.60;83.30
36716;DHT22;22699;51.034;3.730;2022-07-29T02:41:37;18.50;84.00
36716;DHT22;22699;51.034;3.730;2022-07-29T02:44:10;18.40;84.50
36716;DHT22;22699;51.034;3.730;2022-07-29T02:46:41;18.40;84.60
36716;DHT22;22699;51.034;3.730;2022-07-29T02:51:53;18.30;85.80
36716;DHT22;22699;51.034;3.730;2022-07-29T02:54:46;18.30;85.40
36716;DHT22;22699;51.034;3.730;2022-07-29T02:59:53;18.30;85.80
36716;DHT22;22699;51.034;3.730;2022-07-29T03:02:22;18.20;86.10
36716;DHT22;22699;51.034;3.730;2022-07-29T03:04:50;18.10;86.30
36716;DHT22;22699;51.034;3.730;2022-07-29T03:07:18;18.20;87.00
36716;DHT22;22699;51.034;3.730;2022-07-29T03:09:46;18.20;87.40
36716;DHT22;22699;51.034;3.730;2022-07-29T03:12:11;18.10;87.80
36716;DHT22;22699;51.034;3.730;2022-07-29T03:14:38;18.10;87.80
36716;DHT22;22699;51.034;3.730;2022-07-29T03:17:11;18.10;88.00
36716;DHT22;22699;51.034;3.730;2022-07-29T03:19:37;18.10;88.40
36716;DHT22;22699;51.034;3.730;2022-07-29T03:22:04;18.10;88.40
36716;DHT22;22699;51.034;3.730;2022-07-29T03:24:35;18.10;88.40
36716;DHT22;22699;51.034;3.730;2022-07-29T03:27:01;18.00;89.00
36716;DHT22;22699;51.034;3.730;2022-07-29T03:29:28;18.00;89.40
36716;DHT22;22699;51.034;3.730;2022-07-29T03:31:54;18.00;89.80
36716;DHT22;22699;51.034;3.730;2022-07-29T03:34:19;18.00;90.00
36716;DHT22;22699;51.034;3.730;2022-07-29T03:36:47;18.00;90.00
36716;DHT22;22699;51.034;3.730;2022-07-29T03:39:15;17.90;90.10
36716;DHT22;22699;51.034;3.730;2022-07-29T03:41:44;18.00;90.20
36716;DHT22;22699;51.034;3.730;2022-07-29T03:44:13;18.00;90.20
36716;DHT22;22699;51.034;3.730;2022-07-29T03:46:41;18.00;90.30
36716;DHT22;22699;51.034;3.730;2022-07-29T03:49:09;18.00;90.40
36716;DHT22;22699;51.034;3.730;2022-07-29T03:51:41;18.00;90.50
36716;DHT22;22699;51.034;3.730;2022-07-29T03:54:12;17.90;90.70
36716;DHT22;22699;51.034;3.730;2022-07-29T03:56:42;17.90;90.90
36716;DHT22;22699;51.034;3.730;2022-07-29T03:59:08;17.80;91.00
36716;DHT22;22699;51.034;3.730;2022-07-29T04:01:37;17.80;91.10
36716;DHT22;22699;51.034;3.730;2022-07-29T04:04:04;17.90;91.20
36716;DHT22;22699;51.034;3.730;2022-07-29T04:06:38;17.90;91.30
36716;DHT22;22699;51.034;3.730;2022-07-29T04:09:05;17.90;91.30
36716;DHT22;22699;51.034;3.730;2022-07-29T04:11:31;17.80;91.60
36716;DHT22;22699;51.034;3.730;2022-07-29T04:14:00;17.80;91.80
36716;DHT22;22699;51.034;3.730;2022-07-29T04:16:27;17.80;91.80
36716;DHT22;22699;51.034;3.730;2022-07-29T04:18:54;17.80;92.00
36716;DHT22;22699;51.034;3.730;2022-07-29T04:21:22;17.70;92.20
36716;DHT22;22699;51.034;3.730;2022-07-29T04:23:48;17.70;92.20
36716;DHT22;22699;51.034;3.730;2022-07-29T04:26:16;17.80;92.20
36716;DHT22;22699;51.034;3.730;2022-07-29T04:28:44;17.80;92.20
36716;DHT22;22699;51.034;3.730;2022-07-29T04:31:11;17.80;92.30
36716;DHT22;22699;51.034;3.730;2022-07-29T04:33:37;17.80;92.40
36716;DHT22;22699;51.034;3.730;2022-07-29T04:36:03;17.80;92.50
36716;DHT22;22699;51.034;3.730;2022-07-29T04:38:29;17.80;92.90
36716;DHT22;22699;51.034;3.730;2022-07-29T04:40:55;17.70;92.80
36716;DHT22;22699;51.034;3.730;2022-07-29T04:43:20;17.80;92.90
36716;DHT22;22699;51.034;3.730;2022-07-29T04:45:46;17.70;92.90
36716;DHT22;22699;51.034;3.730;2022-07-29T04:48:11;17.80;92.80
36716;DHT22;22699;51.034;3.730;2022-07-29T04:50:40;17.90;92.80
36716;DHT22;22699;51.034;3.730;2022-07-29T04:53:07;17.80;92.80
36716;DHT22;22699;51.034;3.730;2022-07-29T04:55:33;17.80;92.90
36716;DHT22;22699;51.034;3.730;2022-07-29T04:57:58;17.90;92.90
36716;DHT22;22699;51.034;3.730;2022-07-29T05:00:24;18.00;92.80
36716;DHT22;22699;51.034;3.730;2022-07-29T05:02:51;17.90;92.80
36716;DHT22;22699;51.034;3.730;2022-07-29T05:05:17;18.00;92.80
36716;DHT22;22699;51.034;3.730;2022-07-29T05:07:43;18.00;92.70
36716;DHT22;22699;51.034;3.730;2022-07-29T05:10:10;18.00;92.50
36716;DHT22;22699;51.034;3.730;2022-07-29T05:12:38;18.10;92.40
36716;DHT22;22699;51.034;3.730;2022-07-29T05:15:05;18.10;92.30
36716;DHT22;22699;51.034;3.730;2022-07-29T05:17:31;18.10;92.40
36716;DHT22;22699;51.034;3.730;2022-07-29T05:19:58;18.10;92.40
36716;DHT22;22699;51.034;3.730;2022-07-29T05:22:32;18.10;92.20
36716;DHT22;22699;51.034;3.730;2022-07-29T05:24:58;18.30;92.10
36716;DHT22;22699;51.034;3.730;2022-07-29T05:27:23;18.30;91.90
36716;DHT22;22699;51.034;3.730;2022-07-29T05:29:50;18.30;91.90
36716;DHT22;22699;51.034;3.730;2022-07-29T05:32:17;18.30;91.90
36716;DHT22;22699;51.034;3.730;2022-07-29T05:34:42;18.30;91.80
36716;DHT22;22699;51.034;3.730;2022-07-29T05:37:16;18.40;91.60
36716;DHT22;22699;51.034;3.730;2022-07-29T05:39:46;18.50;91.40
36716;DHT22;22699;51.034;3.730;2022-07-29T05:42:14;18.50;91.40
36716;DHT22;22699;51.034;3.730;2022-07-29T05:44:41;18.60;91.30
36716;DHT22;22699;51.034;3.730;2022-07-29T05:47:09;18.60;91.20
36716;DHT22;22699;51.034;3.730;2022-07-29T05:49:34;18.70;91.00
36716;DHT22;22699;51.034;3.730;2022-07-29T05:52:00;18.70;90.90
36716;DHT22;22699;51.034;3.730;2022-07-29T05:54:29;18.90;90.90
36716;DHT22;22699;51.034;3.730;2022-07-29T05:56:54;18.90;90.70
36716;DHT22;22699;51.034;3.730;2022-07-29T05:59:25;19.00;90.70
36716;DHT22;22699;51.034;3.730;2022-07-29T06:01:51;19.00;90.60
36716;DHT22;22699;51.034;3.730;2022-07-29T06:04:17;19.00;90.70
36716;DHT22;22699;51.034;3.730;2022-07-29T06:06:43;19.00;90.80
36716;DHT22;22699;51.034;3.730;2022-07-29T06:09:09;19.00;90.80
36716;DHT22;22699;51.034;3.730;2022-07-29T06:11:35;19.00;90.90
36716;DHT22;22699;51.034;3.730;2022-07-29T06:14:01;19.00;90.80
36716;DHT22;22699;51.034;3.730;2022-07-29T06:16:28;19.20;90.70
36716;DHT22;22699;51.034;3.730;2022-07-29T06:18:54;19.20;90.50
36716;DHT22;22699;51.034;3.730;2022-07-29T06:21:20;19.30;90.20
36716;DHT22;22699;51.034;3.730;2022-07-29T06:23:46;19.30;90.10
36716;DHT22;22699;51.034;3.730;2022-07-29T06:26:11;19.20;90.00
36716;DHT22;22699;51.034;3.730;2022-07-29T06:28:38;19.10;90.10
36716;DHT22;22699;51.034;3.730;2022-07-29T06:31:07;19.10;90.30
36716;DHT22;22699;51.034;3.730;2022-07-29T06:33:33;19.20;90.50
36716;DHT22;22699;51.034;3.730;2022-07-29T06:35:59;19.20;90.50
36716;DHT22;22699;51.034;3.730;2022-07-29T06:38:25;19.30;90.30
36716;DHT22;22699;51.034;3.730;2022-07-29T06:40:52;19.50;90.00
36716;DHT22;22699;51.034;3.730;2022-07-29T06:43:35;19.60;89.40
36716;DHT22;22699;51.034;3.730;2022-07-29T06:46:09;19.60;89.00
36716;DHT22;22699;51.034;3.730;2022-07-29T06:48:35;19.70;88.40
36716;DHT22;22699;51.034;3.730;2022-07-29T06:51:05;19.80;87.50
36716;DHT22;22699;51.034;3.730;2022-07-29T06:53:31;19.70;87.90
36716;DHT22;22699;51.034;3.730;2022-07-29T06:55:58;19.70;88.50
36716;DHT22;22699;51.034;3.730;2022-07-29T06:58:27;19.60;87.90
36716;DHT22;22699;51.034;3.730;2022-07-29T07:00:53;19.50;87.90
36716;DHT22;22699;51.034;3.730;2022-07-29T07:03:19;19.60;88.30
36716;DHT22;22699;51.034;3.730;2022-07-29T07:05:45;19.60;89.00
36716;DHT22;22699;51.034;3.730;2022-07-29T07:08:12;19.80;87.80
36716;DHT22;22699;51.034;3.730;2022-07-29T07:10:38;19.90;87.60
36716;DHT22;22699;51.034;3.730;2022-07-29T07:13:06;20.00;86.90
36716;DHT22;22699;51.034;3.730;2022-07-29T07:15:32;20.30;85.80
36716;DHT22;22699;51.034;3.730;2022-07-29T07:17:58;20.40;85.30
36716;DHT22;22699;51.034;3.730;2022-07-29T07:20:24;20.80;84.60
36716;DHT22;22699;51.034;3.730;2022-07-29T07:22:50;21.10;83.70
36716;DHT22;22699;51.034;3.730;2022-07-29T07:25:16;21.20;83.30
36716;DHT22;22699;51.034;3.730;2022-07-29T07:27:46;21.40;82.70
36716;DHT22;22699;51.034;3.730;2022-07-29T07:30:11;21.60;81.80
36716;DHT22;22699;51.034;3.730;2022-07-29T07:32:37;22.10;80.60
36716;DHT22;22699;51.034;3.730;2022-07-29T07:35:07;23.60;76.80
36716;DHT22;22699;51.034;3.730;2022-07-29T07:37:34;25.50;71.20
36716;DHT22;22699;51.034;3.730;2022-07-29T07:40:00;29.00;62.60
36716;DHT22;22699;51.034;3.730;2022-07-29T07:42:26;32.10;56.40
36716;DHT22;22699;51.034;3.730;2022-07-29T07:44:53;34.60;50.10
36716;DHT22;22699;51.034;3.730;2022-07-29T07:47:19;37.00;46.40
36716;DHT22;22699;51.034;3.730;2022-07-29T07:49:49;38.70;43.40
36716;DHT22;22699;51.034;3.730;2022-07-29T07:52:16;40.60;41.30
36716;DHT22;22699;51.034;3.730;2022-07-29T07:54:42;41.60;39.70
36716;DHT22;22699;51.034;3.730;2022-07-29T07:57:09;41.70;38.70
36716;DHT22;22699;51.034;3.730;2022-07-29T07:59:34;41.50;38.40
36716;DHT22;22699;51.034;3.730;2022-07-29T08:02:00;41.00;38.70
36716;DHT22;22699;51.034;3.730;2022-07-29T08:04:26;41.30;38.60
36716;DHT22;22699;51.034;3.730;2022-07-29T08:06:52;42.20;38.10
36716;DHT22;22699;51.034;3.730;2022-07-29T08:09:20;42.80;37.40
36716;DHT22;22699;51.034;3.730;2022-07-29T08:11:46;43.60;36.80
36716;DHT22;22699;51.034;3.730;2022-07-29T08:14:12;44.50;36.00
36716;DHT22;22699;51.034;3.730;2022-07-29T08:16:39;45.40;35.50
36716;DHT22;22699;51.034;3.730;2022-07-29T08:19:05;46.10;34.60
36716;DHT22;22699;51.034;3.730;2022-07-29T08:21:31;44.90;35.00
36716;DHT22;22699;51.034;3.730;2022-07-29T08:23:56;43.30;35.70
36716;DHT22;22699;51.034;3.730;2022-07-29T08:26:42;44.40;35.70
36716;DHT22;22699;51.034;3.730;2022-07-29T08:29:08;45.50;35.10
36716;DHT22;22699;51.034;3.730;2022-07-29T08:31:35;46.30;34.40
36716;DHT22;22699;51.034;3.730;2022-07-29T08:34:01;46.90;33.80
36716;DHT22;22699;51.034;3.730;2022-07-29T08:36:28;48.00;33.30
36716;DHT22;22699;51.034;3.730;2022-07-29T08:38:55;48.50;32.70
36716;DHT22;22699;51.034;3.730;2022-07-29T08:41:21;47.00;33.00
36716;DHT22;22699;51.034;3.730;2022-07-29T08:43:48;47.90;32.40
36716;DHT22;22699;51.034;3.730;2022-07-29T08:46:15;47.90;32.30
36716;DHT22;22699;51.034;3.730;2022-07-29T08:48:42;48.70;32.10
36716;DHT22;22699;51.034;3.730;2022-07-29T08:51:08;48.00;32.00
36716;DHT22;22699;51.034;3.730;2022-07-29T08:53:40;49.10;31.80
36716;DHT22;22699;51.034;3.730;2022-07-29T08:56:07;50.00;31.40
36716;DHT22;22699;51.034;3.730;2022-07-29T08:58:33;50.80;31.10
36716;DHT22;22699;51.034;3.730;2022-07-29T09:01:02;51.20;30.70
36716;DHT22;22699;51.034;3.730;2022-07-29T09:03:32;50.60;30.40
36716;DHT22;22699;51.034;3.730;2022-07-29T09:06:00;50.30;30.70
36716;DHT22;22699;51.034;3.730;2022-07-29T09:08:27;49.30;31.10
36716;DHT22;22699;51.034;3.730;2022-07-29T09:10:54;48.90;31.60
36716;DHT22;22699;51.034;3.730;2022-07-29T09:13:21;48.70;31.00
36716;DHT22;22699;51.034;3.730;2022-07-29T09:15:47;49.00;31.00
36716;DHT22;22699;51.034;3.730;2022-07-29T09:20:58;50.40;30.80
36716;DHT22;22699;51.034;3.730;2022-07-29T09:24:06;49.80;30.80
36716;DHT22;22699;51.034;3.730;2022-07-29T09:26:34;49.80;30.80
36716;DHT22;22699;51.034;3.730;2022-07-29T09:29:01;48.70;30.70
36716;DHT22;22699;51.034;3.730;2022-07-29T09:31:35;48.20;31.40
36716;DHT22;22699;51.034;3.730;2022-07-29T09:34:01;48.40;31.20
36716;DHT22;22699;51.034;3.730;2022-07-29T09:36:27;47.50;31.50
36716;DHT22;22699;51.034;3.730;2022-07-29T09:38:59;48.00;31.80
36716;DHT22;22699;51.034;3.730;2022-07-29T09:41:26;48.90;31.40
36716;DHT22;22699;51.034;3.730;2022-07-29T09:43:59;48.50;30.70
36716;DHT22;22699;51.034;3.730;2022-07-29T09:46:25;46.40;31.60
36716;DHT22;22699;51.034;3.730;2022-07-29T09:49:11;44.70;32.50
36716;DHT22;22699;51.034;3.730;2022-07-29T09:51:38;44.10;33.30
36716;DHT22;22699;51.034;3.730;2022-07-29T09:56:49;46.40;32.80
36716;DHT22;22699;51.034;3.730;2022-07-29T09:59:14;46.90;32.20
36716;DHT22;22699;51.034;3.730;2022-07-29T10:01:40;47.10;31.60
36716;DHT22;22699;51.034;3.730;2022-07-29T10:04:06;45.40;31.80
36716;DHT22;22699;51.034;3.730;2022-07-29T10:06:32;45.50;32.50
36716;DHT22;22699;51.034;3.730;2022-07-29T10:09:08;44.00;32.60
36716;DHT22;22699;51.034;3.730;2022-07-29T10:11:34;43.90;32.70
36716;DHT22;22699;51.034;3.730;2022-07-29T10:14:01;42.40;34.00
36716;DHT22;22699;51.034;3.730;2022-07-29T10:16:28;40.60;35.10
36716;DHT22;22699;51.034;3.730;2022-07-29T10:18:58;37.90;36.70
36716;DHT22;22699;51.034;3.730;2022-07-29T10:21:25;36.60;38.20
36716;DHT22;22699;51.034;3.730;2022-07-29T10:23:52;34.40;40.40
36716;DHT22;22699;51.034;3.730;2022-07-29T10:26:19;32.90;42.30
36716;DHT22;22699;51.034;3.730;2022-07-29T10:28:45;31.80;43.30
36716;DHT22;22699;51.034;3.730;2022-07-29T10:31:19;30.90;45.20
36716;DHT22;22699;51.034;3.730;2022-07-29T10:39:14;30.30;45.60
36716;DHT22;22699;51.034;3.730;2022-07-29T10:41:59;29.80;46.10
36716;DHT22;22699;51.034;3.730;2022-07-29T10:44:27;29.30;47.00
36716;DHT22;22699;51.034;3.730;2022-07-29T10:46:54;28.60;47.50
36716;DHT22;22699;51.034;3.730;2022-07-29T10:49:24;28.90;47.80
36716;DHT22;22699;51.034;3.730;2022-07-29T10:52:05;28.80;48.00
36716;DHT22;22699;51.034;3.730;2022-07-29T10:54:47;29.00;47.30
36716;DHT22;22699;51.034;3.730;2022-07-29T11:02:40;28.30;48.00
36716;DHT22;22699;51.034;3.730;2022-07-29T11:05:11;28.20;47.80
36716;DHT22;22699;51.034;3.730;2022-07-29T11:07:39;28.30;47.70
36716;DHT22;22699;51.034;3.730;2022-07-29T11:15:20;28.00;48.10
36716;DHT22;22699;51.034;3.730;2022-07-29T11:20:41;27.90;47.40
36716;DHT22;22699;51.034;3.730;2022-07-29T11:23:27;28.10;46.70
36716;DHT22;22699;51.034;3.730;2022-07-29T11:31:42;29.10;46.00
36716;DHT22;22699;51.034;3.730;2022-07-29T11:34:30;29.40;45.90
36716;DHT22;22699;51.034;3.730;2022-07-29T11:39:33;29.80;45.30
36716;DHT22;22699;51.034;3.730;2022-07-29T11:47:40;30.30;45.00
36716;DHT22;22699;51.034;3.730;2022-07-29T11:50:11;30.00;45.40
36716;DHT22;22699;51.034;3.730;2022-07-29T11:52:42;29.90;45.90
36716;DHT22;22699;51.034;3.730;2022-07-29T11:55:11;29.40;46.20
36716;DHT22;22699;51.034;3.730;2022-07-29T11:57:38;29.20;46.50
36716;DHT22;22699;51.034;3.730;2022-07-29T12:00:11;28.90;47.20
36716;DHT22;22699;51.034;3.730;2022-07-29T12:02:41;28.90;47.10
36716;DHT22;22699;51.034;3.730;2022-07-29T12:05:08;29.20;46.80
36716;DHT22;22699;51.034;3.730;2022-07-29T12:07:35;29.10;46.80
36716;DHT22;22699;51.034;3.730;2022-07-29T12:10:03;29.30;46.20
36716;DHT22;22699;51.034;3.730;2022-07-29T12:12:29;29.40;46.30
36716;DHT22;22699;51.034;3.730;2022-07-29T12:14:54;29.30;46.30
36716;DHT22;22699;51.034;3.730;2022-07-29T12:17:27;29.30;46.60
36716;DHT22;22699;51.034;3.730;2022-07-29T12:19:54;29.50;45.60
36716;DHT22;22699;51.034;3.730;2022-07-29T12:22:35;29.80;45.00
36716;DHT22;22699;51.034;3.730;2022-07-29T12:25:13;29.70;45.10
36716;DHT22;22699;51.034;3.730;2022-07-29T12:27:44;29.70;45.30
36716;DHT22;22699;51.034;3.730;2022-07-29T12:30:12;30.00;45.70
36716;DHT22;22699;51.034;3.730;2022-07-29T12:32:42;30.20;45.30
36716;DHT22;22699;51.034;3.730;2022-07-29T12:35:10;30.00;45.00
36716;DHT22;22699;51.034;3.730;2022-07-29T12:37:37;29.70;45.40
36716;DHT22;22699;51.034;3.730;2022-07-29T12:40:05;29.60;45.90
36716;DHT22;22699;51.034;3.730;2022-07-29T12:42:31;29.60;45.90
36716;DHT22;22699;51.034;3.730;2022-07-29T12:44:57;29.50;45.70
36716;DHT22;22699;51.034;3.730;2022-07-29T12:47:22;29.40;45.80
36716;DHT22;22699;51.034;3.730;2022-07-29T12:49:49;29.50;46.10
36716;DHT22;22699;51.034;3.730;2022-07-29T12:52:28;29.30;46.10
36716;DHT22;22699;51.034;3.730;2022-07-29T12:54:54;29.40;45.70
36716;DHT22;22699;51.034;3.730;2022-07-29T12:57:20;29.60;45.30
36716;DHT22;22699;51.034;3.730;2022-07-29T13:00:05;29.70;44.70
36716;DHT22;22699;51.034;3.730;2022-07-29T13:02:40;30.10;44.20
36716;DHT22;22699;51.034;3.730;2022-07-29T13:05:08;30.20;43.90
36716;DHT22;22699;51.034;3.730;2022-07-29T13:07:35;30.20;44.50
36716;DHT22;22699;51.034;3.730;2022-07-29T13:10:14;30.00;45.50
36716;DHT22;22699;51.034;3.730;2022-07-29T13:13:12;29.70;46.00
36716;DHT22;22699;51.034;3.730;2022-07-29T13:15:40;29.40;47.30
36716;DHT22;22699;51.034;3.730;2022-07-29T13:18:33;29.20;47.80
36716;DHT22;22699;51.034;3.730;2022-07-29T13:21:15;29.00;48.10
36716;DHT22;22699;51.034;3.730;2022-07-29T13:23:41;28.90;48.20
36716;DHT22;22699;51.034;3.730;2022-07-29T13:26:08;29.00;48.10
36716;DHT22;22699;51.034;3.730;2022-07-29T13:28:34;29.20;47.80
36716;DHT22;22699;51.034;3.730;2022-07-29T13:31:00;29.20;48.10
36716;DHT22;22699;51.034;3.730;2022-07-29T13:33:26;29.00;48.40
36716;DHT22;22699;51.034;3.730;2022-07-29T13:35:52;29.10;48.80
36716;DHT22;22699;51.034;3.730;2022-07-29T13:38:17;29.10;48.70
36716;DHT22;22699;51.034;3.730;2022-07-29T13:40:44;29.50;48.30
36716;DHT22;22699;51.034;3.730;2022-07-29T13:43:10;29.60;48.20
36716;DHT22;22699;51.034;3.730;2022-07-29T13:45:39;29.80;47.70
36716;DHT22;22699;51.034;3.730;2022-07-29T13:48:05;29.40;48.00
36716;DHT22;22699;51.034;3.730;2022-07-29T13:50:31;29.20;48.10
36716;DHT22;22699;51.034;3.730;2022-07-29T13:52:58;29.10;48.10
36716;DHT22;22699;51.034;3.730;2022-07-29T13:55:26;29.00;48.10
36716;DHT22;22699;51.034;3.730;2022-07-29T13:57:52;28.90;48.20
36716;DHT22;22699;51.034;3.730;2022-07-29T14:00:18;28.70;48.30
36716;DHT22;22699;51.034;3.730;2022-07-29T14:02:44;28.80;48.40
36716;DHT22;22699;51.034;3.730;2022-07-29T14:05:10;28.50;48.80
36716;DHT22;22699;51.034;3.730;2022-07-29T14:07:37;28.50;49.10
36716;DHT22;22699;51.034;3.730;2022-07-29T14:10:04;28.30;49.30
36716;DHT22;22699;51.034;3.730;2022-07-29T14:12:30;27.90;50.70
36716;DHT22;22699;51.034;3.730;2022-07-29T14:14:55;27.70;51.20
36716;DHT22;22699;51.034;3.730;2022-07-29T14:17:21;27.80;51.20
36716;DHT22;22699;51.034;3.730;2022-07-29T14:19:47;27.80;51.20
36716;DHT22;22699;51.034;3.730;2022-07-29T14:22:13;27.80;51.00
36716;DHT22;22699;51.034;3.730;2022-07-29T14:24:39;28.00;50.70
36716;DHT22;22699;51.034;3.730;2022-07-29T14:27:07;28.30;49.70
36716;DHT22;22699;51.034;3.730;2022-07-29T14:29:33;28.50;49.00
36716;DHT22;22699;51.034;3.730;2022-07-29T14:31:59;28.90;48.00
36716;DHT22;22699;51.034;3.730;2022-07-29T14:34:24;29.30;47.50
36716;DHT22;22699;51.034;3.730;2022-07-29T14:36:53;29.40;47.80
36716;DHT22;22699;51.034;3.730;2022-07-29T14:39:21;29.30;48.00
36716;DHT22;22699;51.034;3.730;2022-07-29T14:41:48;28.90;48.10
36716;DHT22;22699;51.034;3.730;2022-07-29T14:44:14;28.80;48.40
36716;DHT22;22699;51.034;3.730;2022-07-29T14:46:40;28.80;48.80
36716;DHT22;22699;51.034;3.730;2022-07-29T14:49:06;28.40;49.30
36716;DHT22;22699;51.034;3.730;2022-07-29T14:51:32;28.30;49.70
36716;DHT22;22699;51.034;3.730;2022-07-29T14:53:59;28.30;49.50
36716;DHT22;22699;51.034;3.730;2022-07-29T14:56:25;28.20;49.70
36716;DHT22;22699;51.034;3.730;2022-07-29T14:58:50;28.10;50.10
36716;DHT22;22699;51.034;3.730;2022-07-29T15:01:16;27.90;50.30
36716;DHT22;22699;51.034;3.730;2022-07-29T15:03:42;27.80;50.50
36716;DHT22;22699;51.034;3.730;2022-07-29T15:06:07;27.70;50.50
36716;DHT22;22699;51.034;3.730;2022-07-29T15:08:33;27.70;50.80
36716;DHT22;22699;51.034;3.730;2022-07-29T15:10:58;27.90;50.60
36716;DHT22;22699;51.034;3.730;2022-07-29T15:13:25;27.90;50.50
36716;DHT22;22699;51.034;3.730;2022-07-29T15:15:50;28.10;50.60
36716;DHT22;22699;51.034;3.730;2022-07-29T15:18:17;28.40;49.90
36716;DHT22;22699;51.034;3.730;2022-07-29T15:20:42;28.50;49.50
36716;DHT22;22699;51.034;3.730;2022-07-29T15:23:10;28.50;49.90
36716;DHT22;22699;51.034;3.730;2022-07-29T15:25:37;28.30;50.10
36716;DHT22;22699;51.034;3.730;2022-07-29T15:28:03;27.90;50.90
36716;DHT22;22699;51.034;3.730;2022-07-29T15:30:32;27.60;51.20
36716;DHT22;22699;51.034;3.730;2022-07-29T15:32:58;27.50;51.40
36716;DHT22;22699;51.034;3.730;2022-07-29T15:35:24;27.60;51.30
36716;DHT22;22699;51.034;3.730;2022-07-29T15:37:49;27.70;51.40
36716;DHT22;22699;51.034;3.730;2022-07-29T15:40:15;27.80;51.40
36716;DHT22;22699;51.034;3.730;2022-07-29T15:42:41;27.90;51.40
36716;DHT22;22699;51.034;3.730;2022-07-29T15:45:07;27.80;51.70
36716;DHT22;22699;51.034;3.730;2022-07-29T15:47:35;27.70;52.80
36716;DHT22;22699;51.034;3.730;2022-07-29T15:50:01;27.50;52.40
36716;DHT22;22699;51.034;3.730;2022-07-29T15:52:26;27.50;52.40
36716;DHT22;22699;51.034;3.730;2022-07-29T15:54:55;27.50;52.50
36716;DHT22;22699;51.034;3.730;2022-07-29T15:57:22;27.40;52.30
36716;DHT22;22699;51.034;3.730;2022-07-29T15:59:48;27.30;52.80
36716;DHT22;22699;51.034;3.730;2022-07-29T16:02:14;27.10;53.00
36716;DHT22;22699;51.034;3.730;2022-07-29T16:04:40;27.00;52.90
36716;DHT22;22699;51.034;3.730;2022-07-29T16:07:06;27.30;52.50
36716;DHT22;22699;51.034;3.730;2022-07-29T16:09:31;27.10;52.80
36716;DHT22;22699;51.034;3.730;2022-07-29T16:11:57;26.70;53.40
36716;DHT22;22699;51.034;3.730;2022-07-29T16:14:23;26.70;53.70
36716;DHT22;22699;51.034;3.730;2022-07-29T16:16:48;26.90;53.40
36716;DHT22;22699;51.034;3.730;2022-07-29T16:19:14;27.00;53.10
36716;DHT22;22699;51.034;3.730;2022-07-29T16:21:40;27.20;52.90
36716;DHT22;22699;51.034;3.730;2022-07-29T16:24:05;27.20;52.60
36716;DHT22;22699;51.034;3.730;2022-07-29T16:26:32;27.10;52.70
36716;DHT22;22699;51.034;3.730;2022-07-29T16:28:58;27.30;52.40
36716;DHT22;22699;51.034;3.730;2022-07-29T16:31:24;27.30;52.40
36716;DHT22;22699;51.034;3.730;2022-07-29T16:33:53;26.90;52.70